sensor_id;sensor_type;location;lat;lon;timestamp;temperature;humidity
11379;DHT22;5744;59.392;16.748;2023-02-25T10:14:12;4.50;99.90
11379;DHT22;5744;59.392;16.748;2023-02-25T10:16:45;1.40;99.90
11379;DHT22;5744;59.392;16.748;2023-02-25T10:19:18;1.30;99.90
11379;DHT22;5744;59.392;16.748;2023-02-25T10:21:55;1.40;99.90
11379;DHT22;5744;59.392;16.748;2023-02-25T10:24:28;1.50;99.90
11379;DHT22;5744;59.392;16.748;2023-02-25T10:27:01;1.50;99.90
11379;DHT22;5744;59.392;16.748;2023-02-25T10:29:39;1.70;99.90
11379;DHT22;5744;59.392;16.748;2023-02-25T10:32:16;1.70;99.90
11379;DHT22;5744;59.392;16.748;2023-02-25T10:34:45;1.80;99.90
11379;DHT22;5744;59.392;16.748;2023-02-25T10:37:16;1.70;99.90
11379;DHT22;5744;59.392;16.748;2023-02-25T10:39:46;1.70;99.90
11379;DHT22;5744;59.392;16.748;2023-02-25T10:42:16;1.80;99.90
11379;DHT22;5744;59.392;16.748;2023-02-25T10:44:47;1.90;99.90
11379;DHT22;5744;59.392;16.748;2023-02-25T10:47:17;1.80;99.90
11379;DHT22;5744;59.392;16.748;2023-02-25T10:52:32;1.80;99.90
11379;DHT22;5744;59.392;16.748;2023-02-25T10:55:00;1.90;99.90
11379;DHT22;5744;59.392;16.748;2023-02-25T10:57:32;1.80;99.90
11379;DHT22;5744;59.392;16.748;2023-02-25T11:00:06;1.80;99.90
11379;DHT22;5744;59.392;16.748;2023-02-25T11:02:41;1.90;99.90
11379;DHT22;5744;59.392;16.748;2023-02-25T11:07:54;1.90;99.90
11379;DHT22;5744;59.392;16.748;2023-02-25T11:10:23;1.90;99.90
11379;DHT22;5744;59.392;16.748;2023-02-25T11:12:52;1.90;99.90
11379;DHT22;5744;59.392;16.748;2023-02-25T11:15:33;2.10;99.90
11379;DHT22;5744;59.392;16.748;2023-02-25T11:18:04;2.20;99.90
11379;DHT22;5744;59.392;16.748;2023-02-25T11:20:33;2.40;99.90
11379;DHT22;5744;59.392;16.748;2023-02-25T11:23:02;2.30;99.90
11379;DHT22;5744;59.392;16.748;2023-02-25T11:25:34;2.40;99.90
11379;DHT22;5744;59.392;16.748;2023-02-25T11:28:04;2.50;99.90
11379;DHT22;5744;59.392;16.748;2023-02-25T11:30:36;2.40;99.90
11379;DHT22;5744;59.392;16.748;2023-02-25T11:33:07;2.60;99.90
11379;DHT22;5744;59.392;16.748;2023-02-25T11:35:43;2.60;99.90
11379;DHT22;5744;59.392;16.748;2023-02-25T11:38:12;2.70;99.90
11379;DHT22;5744;59.392;16.748;2023-02-25T11:40:42;2.80;99.90
11379;DHT22;5744;59.392;16.748;2023-02-25T11:43:15;2.90;99.90
11379;DHT22;5744;59.392;16.748;2023-02-25T11:45:54;3.00;99.90
11379;DHT22;5744;59.392;16.748;2023-02-25T11:48:25;3.00;99.90
11379;DHT22;5744;59.392;16.748;2023-02-25T11:50:56;3.00;99.90
11379;DHT22;5744;59.392;16.748;2023-02-25T11:53:32;2.90;99.90
11379;DHT22;5744;59.392;16.748;2023-02-25T11:56:04;2.80;99.90
11379;DHT22;5744;59.392;16.748;2023-02-25T11:58:40;2.70;99.90
11379;DHT22;5744;59.392;16.748;2023-02-25T12:01:15;2.60;99.90
11379;DHT22;5744;59.392;16.748;2023-02-25T12:03:56;2.40;99.90
11379;DHT22;5744;59.392;16.748;2023-02-25T12:06:31;2.40;99.90
11379;DHT22;5744;59.392;16.748;2023-02-25T12:11:53;2.60;99.90
11379;DHT22;5744;59.392;16.748;2023-02-25T12:17:17;3.70;99.90
11379;DHT22;5744;59.392;16.748;2023-02-25T12:19:58;4.50;99.90
11379;DHT22;5744;59.392;16.748;2023-02-25T12:22:45;5.00;99.90
11379;DHT22;5744;59.392;16.748;2023-02-25T12:25:24;5.60;99.90
11379;DHT22;5744;59.392;16.748;2023-02-25T12:28:02;5.90;99.90
11379;DHT22;5744;59.392;16.748;2023-02-25T12:30:40;6.20;99.90
11379;DHT22;5744;59.392;16.748;2023-02-25T12:33:22;6.40;99.90
11379;DHT22;5744;59.392;16.748;2023-02-25T12:36:12;6.40;99.90
11379;DHT22;5744;59.392;16.748;2023-02-25T12:41:38;6.00;99.90
11379;DHT22;5744;59.392;16.748;2023-02-25T12:44:12;6.00;99.90
11379;DHT22;5744;59.392;16.748;2023-02-25T12:46:47;6.00;99.90
11379;DHT22;5744;59.392;16.748;2023-02-25T12:49:24;5.80;99.90
11379;DHT22;5744;59.392;16.748;2023-02-25T12:51:56;5.50;99.90
11379;DHT22;5744;59.392;16.748;2023-02-25T12:57:17;5.20;99.90
11379;DHT22;5744;59.392;16.748;2023-02-25T13:00:00;5.30;99.90
11379;DHT22;5744;59.392;16.748;2023-02-25T13:02:38;5.50;99.90
11379;DHT22;5744;59.392;16.748;2023-02-25T13:05:21;5.90;99.90
11379;DHT22;5744;59.392;16.748;2023-02-25T13:10:43;6.40;99.90
11379;DHT22;5744;59.392;16.748;2023-02-25T13:13:24;6.50;99.90
11379;DHT22;5744;59.392;16.748;2023-02-25T13:16:00;6.60;99.90
11379;DHT22;5744;59.392;16.748;2023-02-25T13:18:33;6.40;99.90
11379;DHT22;5744;59.392;16.748;2023-02-25T13:21:14;6.40;99.90
11379;DHT22;5744;59.392;16.748;2023-02-25T13:23:46;6.40;99.90
11379;DHT22;5744;59.392;16.748;2023-02-25T13:26:26;6.30;99.90
11379;DHT22;5744;59.392;16.748;2023-02-25T13:29:02;6.30;99.90
11379;DHT22;5744;59.392;16.748;2023-02-25T13:31:41;6.20;99.90
11379;DHT22;5744;59.392;16.748;2023-02-25T13:34:17;6.10;99.90
11379;DHT22;5744;59.392;16.748;2023-02-25T13:37:05;6.10;99.90
11379;DHT22;5744;59.392;16.748;2023-02-25T13:39:45;6.20;99.90
11379;DHT22;5744;59.392;16.748;2023-02-25T13:42:19;6.10;99.90
11379;DHT22;5744;59.392;16.748;2023-02-25T13:45:00;6.10;99.90
11379;DHT22;5744;59.392;16.748;2023-02-25T13:47:41;5.90;99.90
11379;DHT22;5744;59.392;16.748;2023-02-25T13:50:20;5.60;99.90
11379;DHT22;5744;59.392;16.748;2023-02-25T13:53:03;5.50;99.90
11379;DHT22;5744;59.392;16.748;2023-02-25T13:55:41;5.20;99.90
11379;DHT22;5744;59.392;16.748;2023-02-25T13:58:29;5.20;99.90
11379;DHT22;5744;59.392;16.748;2023-02-25T14:01:05;5.30;99.90
11379;DHT22;5744;59.392;16.748;2023-02-25T14:06:25;5.20;99.90
11379;DHT22;5744;59.392;16.748;2023-02-25T14:09:09;5.10;99.90
11379;DHT22;5744;59.392;16.748;2023-02-25T14:11:42;5.00;99.90
11379;DHT22;5744;59.392;16.748;2023-02-25T14:14:23;5.00;99.90
11379;DHT22;5744;59.392;16.748;2023-02-25T14:17:01;4.80;99.90
11379;DHT22;5744;59.392;16.748;2023-02-25T14:19:36;4.60;99.90
11379;DHT22;5744;59.392;16.748;2023-02-25T14:22:10;4.40;99.90
11379;DHT22;5744;59.392;16.748;2023-02-25T14:24:48;4.10;99.90
11379;DHT22;5744;59.392;16.748;2023-02-25T14:27:23;4.00;99.90
11379;DHT22;5744;59.392;16.748;2023-02-25T14:29:58;3.80;99.90
11379;DHT22;5744;59.392;16.748;2023-02-25T14:32:32;3.70;99.90
11379;DHT22;5744;59.392;16.748;2023-02-25T14:35:07;3.50;99.90
11379;DHT22;5744;59.392;16.748;2023-02-25T14:37:42;3.40;99.90
11379;DHT22;5744;59.392;16.748;2023-02-25T14:40:27;3.30;99.90
11379;DHT22;5744;59.392;16.748;2023-02-25T14:43:14;3.10;99.90
11379;DHT22;5744;59.392;16.748;2023-02-25T14:45:49;2.90;99.90
11379;DHT22;5744;59.392;16.748;2023-02-25T14:48:20;2.90;99.90
11379;DHT22;5744;59.392;16.748;2023-02-25T14:50:52;2.80;99.90
11379;DHT22;5744;59.392;16.748;2023-02-25T14:53:37;2.70;99.90
11379;DHT22;5744;59.392;16.748;2023-02-25T14:59:05;2.40;99.90
11379;DHT22;5744;59.392;16.748;2023-02-25T15:01:45;2.40;99.90
11379;DHT22;5744;59.392;16.748;2023-02-25T15:04:21;2.20;99.90
11379;DHT22;5744;59.392;16.748;2023-02-25T15:09:45;2.00;99.90
11379;DHT22;5744;59.392;16.748;2023-02-25T15:12:28;2.00;99.90
11379;DHT22;5744;59.392;16.748;2023-02-25T15:20:32;1.50;99.90
11379;DHT22;5744;59.392;16.748;2023-02-25T15:23:04;1.40;99.90
11379;DHT22;5744;59.392;16.748;2023-02-25T15:25:39;1.30;99.90
11379;DHT22;5744;59.392;16.748;2023-02-25T15:31:22;1.10;99.90
11379;DHT22;5744;59.392;16.748;2023-02-25T15:33:54;1.00;99.90
11379;DHT22;5744;59.392;16.748;2023-02-25T15:36:38;0.90;99.90
11379;DHT22;5744;59.392;16.748;2023-02-25T15:39:07;0.80;99.90
11379;DHT22;5744;59.392;16.748;2023-02-25T15:41:39;0.70;99.90
11379;DHT22;5744;59.392;16.748;2023-02-25T15:49:57;0.50;99.90
11379;DHT22;5744;59.392;16.748;2023-02-25T15:55:16;0.30;99.90
11379;DHT22;5744;59.392;16.748;2023-02-25T15:57:46;0.20;99.90
11379;DHT22;5744;59.392;16.748;2023-02-25T16:03:23;0.00;99.90
11379;DHT22;5744;59.392;16.748;2023-02-25T16:05:52;-0.10;99.90
11379;DHT22;5744;59.392;16.748;2023-02-25T16:08:22;-0.10;99.90
11379;DHT22;5744;59.392;16.748;2023-02-25T16:10:54;-0.20;99.90
11379;DHT22;5744;59.392;16.748;2023-02-25T16:13:25;-0.30;99.90
11379;DHT22;5744;59.392;16.748;2023-02-25T16:15:54;-0.40;99.90
11379;DHT22;5744;59.392;16.748;2023-02-25T16:18:24;-0.50;99.90
11379;DHT22;5744;59.392;16.748;2023-02-25T16:20:57;-0.50;99.90
11379;DHT22;5744;59.392;16.748;2023-02-25T16:23:26;-0.60;99.90
11379;DHT22;5744;59.392;16.748;2023-02-25T16:26:01;-0.70;99.90
11379;DHT22;5744;59.392;16.748;2023-02-25T16:28:35;-0.60;99.90
11379;DHT22;5744;59.392;16.748;2023-02-25T16:31:10;-0.70;99.90
11379;DHT22;5744;59.392;16.748;2023-02-25T16:33:44;-0.70;99.90
11379;DHT22;5744;59.392;16.748;2023-02-25T16:36:18;-0.80;99.90
11379;DHT22;5744;59.392;16.748;2023-02-25T16:38:52;-0.90;99.90
11379;DHT22;5744;59.392;16.748;2023-02-25T16:41:24;-1.00;99.90
11379;DHT22;5744;59.392;16.748;2023-02-25T16:43:55;-1.00;99.90
11379;DHT22;5744;59.392;16.748;2023-02-25T16:46:26;-1.10;99.90
11379;DHT22;5744;59.392;16.748;2023-02-25T16:48:56;-1.10;99.90
11379;DHT22;5744;59.392;16.748;2023-02-25T16:51:27;-1.20;99.90
11379;DHT22;5744;59.392;16.748;2023-02-25T16:53:58;-1.20;99.90
11379;DHT22;5744;59.392;16.748;2023-02-25T16:56:33;-1.30;99.90
11379;DHT22;5744;59.392;16.748;2023-02-25T16:59:03;-1.30;99.90
11379;DHT22;5744;59.392;16.748;2023-02-25T17:01:33;-1.40;99.90
11379;DHT22;5744;59.392;16.748;2023-02-25T17:04:10;-1.60;99.90
11379;DHT22;5744;59.392;16.748;2023-02-25T17:06:40;-1.60;99.90
11379;DHT22;5744;59.392;16.748;2023-02-25T17:09:20;-1.70;99.90
11379;DHT22;5744;59.392;16.748;2023-02-25T17:11:53;-1.80;99.90
11379;DHT22;5744;59.392;16.748;2023-02-25T17:14:22;-1.80;99.90
11379;DHT22;5744;59.392;16.748;2023-02-25T17:16:52;-1.80;99.90
11379;DHT22;5744;59.392;16.748;2023-02-25T17:19:20;-1.90;99.90
11379;DHT22;5744;59.392;16.748;2023-02-25T17:21:50;-1.90;99.90
11379;DHT22;5744;59.392;16.748;2023-02-25T17:24:21;-2.00;99.90
11379;DHT22;5744;59.392;16.748;2023-02-25T17:26:54;-2.00;99.90
11379;DHT22;5744;59.392;16.748;2023-02-25T17:29:22;-2.10;99.90
11379;DHT22;5744;59.392;16.748;2023-02-25T17:32:00;-2.20;99.90
11379;DHT22;5744;59.392;16.748;2023-02-25T17:34:38;-2.20;99.90
11379;DHT22;5744;59.392;16.748;2023-02-25T17:37:09;-2.30;99.90
11379;DHT22;5744;59.392;16.748;2023-02-25T17:39:39;-2.40;99.90
11379;DHT22;5744;59.392;16.748;2023-02-25T17:44:54;-2.50;99.90
11379;DHT22;5744;59.392;16.748;2023-02-25T17:47:23;-2.50;99.90
11379;DHT22;5744;59.392;16.748;2023-02-25T17:49:53;-2.60;99.90
11379;DHT22;5744;59.392;16.748;2023-02-25T17:52:24;-2.60;99.90
11379;DHT22;5744;59.392;16.748;2023-02-25T17:54:55;-2.60;99.90
11379;DHT22;5744;59.392;16.748;2023-02-25T17:57:25;-2.60;99.90
11379;DHT22;5744;59.392;16.748;2023-02-25T17:59:57;-2.70;99.90
11379;DHT22;5744;59.392;16.748;2023-02-25T18:02:30;-2.60;99.90
11379;DHT22;5744;59.392;16.748;2023-02-25T18:07:57;-2.80;99.90
11379;DHT22;5744;59.392;16.748;2023-02-25T18:10:40;-2.80;99.90
11379;DHT22;5744;59.392;16.748;2023-02-25T18:13:15;-2.80;99.90
11379;DHT22;5744;59.392;16.748;2023-02-25T18:15:54;-2.80;99.90
11379;DHT22;5744;59.392;16.748;2023-02-25T18:18:36;-2.90;99.90
11379;DHT22;5744;59.392;16.748;2023-02-25T18:21:05;-2.90;99.90
11379;DHT22;5744;59.392;16.748;2023-02-25T18:23:34;-2.90;99.90
11379;DHT22;5744;59.392;16.748;2023-02-25T18:26:10;-2.90;99.90
11379;DHT22;5744;59.392;16.748;2023-02-25T18:28:39;-3.00;99.90
11379;DHT22;5744;59.392;16.748;2023-02-25T18:31:12;-3.00;99.90
11379;DHT22;5744;59.392;16.748;2023-02-25T18:33:44;-3.10;99.90
11379;DHT22;5744;59.392;16.748;2023-02-25T18:36:15;-3.10;99.90
11379;DHT22;5744;59.392;16.748;2023-02-25T18:38:47;-3.10;99.90
11379;DHT22;5744;59.392;16.748;2023-02-25T18:41:16;-3.10;99.90
11379;DHT22;5744;59.392;16.748;2023-02-25T18:43:44;-3.20;99.90
11379;DHT22;5744;59.392;16.748;2023-02-25T18:46:15;-3.20;99.90
11379;DHT22;5744;59.392;16.748;2023-02-25T18:48:44;-3.30;99.90
11379;DHT22;5744;59.392;16.748;2023-02-25T18:51:12;-3.40;99.90
11379;DHT22;5744;59.392;16.748;2023-02-25T18:53:41;-3.30;99.90
11379;DHT22;5744;59.392;16.748;2023-02-25T18:56:11;-3.30;99.90
11379;DHT22;5744;59.392;16.748;2023-02-25T18:58:42;-3.40;99.90
11379;DHT22;5744;59.392;16.748;2023-02-25T19:01:18;-3.40;99.90
11379;DHT22;5744;59.392;16.748;2023-02-25T19:03:48;-3.40;99.90
11379;DHT22;5744;59.392;16.748;2023-02-25T19:06:18;-3.50;99.90
11379;DHT22;5744;59.392;16.748;2023-02-25T19:08:46;-3.50;99.90
11379;DHT22;5744;59.392;16.748;2023-02-25T19:11:17;-3.50;99.90
11379;DHT22;5744;59.392;16.748;2023-02-25T19:13:45;-3.50;99.90
11379;DHT22;5744;59.392;16.748;2023-02-25T19:16:17;-3.50;99.90
11379;DHT22;5744;59.392;16.748;2023-02-25T19:18:47;-3.50;99.90
11379;DHT22;5744;59.392;16.748;2023-02-25T19:21:16;-3.50;99.90
11379;DHT22;5744;59.392;16.748;2023-02-25T19:23:45;-3.50;99.90
11379;DHT22;5744;59.392;16.748;2023-02-25T19:26:15;-3.50;99.90
11379;DHT22;5744;59.392;16.748;2023-02-25T19:28:43;-3.50;99.90
11379;DHT22;5744;59.392;16.748;2023-02-25T19:31:12;-3.50;99.90
11379;DHT22;5744;59.392;16.748;2023-02-25T19:33:44;-3.50;99.90
11379;DHT22;5744;59.392;16.748;2023-02-25T19:36:13;-3.60;99.90
11379;DHT22;5744;59.392;16.748;2023-02-25T19:38:41;-3.60;99.90
11379;DHT22;5744;59.392;16.748;2023-02-25T19:41:10;-3.60;99.90
11379;DHT22;5744;59.392;16.748;2023-02-25T19:43:38;-3.60;99.90
11379;DHT22;5744;59.392;16.748;2023-02-25T19:46:07;-3.70;99.90
11379;DHT22;5744;59.392;16.748;2023-02-25T19:48:35;-3.70;99.90
11379;DHT22;5744;59.392;16.748;2023-02-25T19:51:07;-3.70;99.90
11379;DHT22;5744;59.392;16.748;2023-02-25T19:53:36;-3.70;99.90
11379;DHT22;5744;59.392;16.748;2023-02-25T19:56:05;-3.80;99.90
11379;DHT22;5744;59.392;16.748;2023-02-25T19:58:34;-3.80;99.90
11379;DHT22;5744;59.392;16.748;2023-02-25T20:01:03;-3.90;99.90
11379;DHT22;5744;59.392;16.748;2023-02-25T20:03:32;-3.90;99.90
11379;DHT22;5744;59.392;16.748;2023-02-25T20:06:08;-4.00;99.90
11379;DHT22;5744;59.392;16.748;2023-02-25T20:08:37;-4.00;99.90
11379;DHT22;5744;59.392;16.748;2023-02-25T20:11:06;-4.10;99.90
11379;DHT22;5744;59.392;16.748;2023-02-25T20:13:35;-4.10;99.90
11379;DHT22;5744;59.392;16.748;2023-02-25T20:16:04;-4.10;99.90
11379;DHT22;5744;59.392;16.748;2023-02-25T20:18:33;-4.20;99.90
11379;DHT22;5744;59.392;16.748;2023-02-25T20:21:02;-4.30;99.90
11379;DHT22;5744;59.392;16.748;2023-02-25T20:23:33;-4.40;99.90
11379;DHT22;5744;59.392;16.748;2023-02-25T20:26:03;-4.40;99.90
11379;DHT22;5744;59.392;16.748;2023-02-25T20:28:31;-4.40;99.90
11379;DHT22;5744;59.392;16.748;2023-02-25T20:31:03;-4.40;99.90
11379;DHT22;5744;59.392;16.748;2023-02-25T20:33:32;-4.40;99.90
11379;DHT22;5744;59.392;16.748;2023-02-25T20:36:02;-4.30;99.90
11379;DHT22;5744;59.392;16.748;2023-02-25T20:38:34;-4.30;99.90
11379;DHT22;5744;59.392;16.748;2023-02-25T20:41:05;-4.20;99.90
11379;DHT22;5744;59.392;16.748;2023-02-25T20:43:34;-4.20;99.90
11379;DHT22;5744;59.392;16.748;2023-02-25T20:46:02;-4.20;99.90
11379;DHT22;5744;59.392;16.748;2023-02-25T20:48:31;-4.20;99.90
11379;DHT22;5744;59.392;16.748;2023-02-25T20:51:00;-4.10;99.90
11379;DHT22;5744;59.392;16.748;2023-02-25T20:53:29;-4.20;99.90
11379;DHT22;5744;59.392;16.748;2023-02-25T20:56:00;-4.20;99.90
11379;DHT22;5744;59.392;16.748;2023-02-25T20:58:29;-4.20;99.90
11379;DHT22;5744;59.392;16.748;2023-02-25T21:00:59;-4.20;99.90
11379;DHT22;5744;59.392;16.748;2023-02-25T21:03:27;-4.20;99.90
11379;DHT22;5744;59.392;16.748;2023-02-25T21:05:56;-4.20;99.90
11379;DHT22;5744;59.392;16.748;2023-02-25T21:08:24;-4.20;99.90
11379;DHT22;5744;59.392;16.748;2023-02-25T21:10:53;-4.10;99.90
11379;DHT22;5744;59.392;16.748;2023-02-25T21:13:24;-4.10;99.90
11379;DHT22;5744;59.392;16.748;2023-02-25T21:15:56;-4.10;99.90
11379;DHT22;5744;59.392;16.748;2023-02-25T21:18:25;-4.10;99.90
11379;DHT22;5744;59.392;16.748;2023-02-25T21:20:55;-4.10;99.90
11379;DHT22;5744;59.392;16.748;2023-02-25T21:23:24;-4.10;99.90
11379;DHT22;5744;59.392;16.748;2023-02-25T21:25:53;-4.10;99.90
11379;DHT22;5744;59.392;16.748;2023-02-25T21:28:24;-4.10;99.90
11379;DHT22;5744;59.392;16.748;2023-02-25T21:30:58;-4.00;99.90
11379;DHT22;5744;59.392;16.748;2023-02-25T21:33:26;-3.90;99.90
11379;DHT22;5744;59.392;16.748;2023-02-25T21:35:55;-3.90;99.90
11379;DHT22;5744;59.392;16.748;2023-02-25T21:38:24;-3.90;99.90
11379;DHT22;5744;59.392;16.748;2023-02-25T21:40:53;-3.90;99.90
11379;DHT22;5744;59.392;16.748;2023-02-25T21:43:24;-4.00;99.90
11379;DHT22;5744;59.392;16.748;2023-02-25T21:45:53;-3.90;99.90
11379;DHT22;5744;59.392;16.748;2023-02-25T21:48:22;-3.90;99.90
11379;DHT22;5744;59.392;16.748;2023-02-25T21:50:51;-3.80;99.90
11379;DHT22;5744;59.392;16.748;2023-02-25T21:53:20;-3.80;99.90
11379;DHT22;5744;59.392;16.748;2023-02-25T21:55:51;-3.80;99.90
11379;DHT22;5744;59.392;16.748;2023-02-25T21:58:20;-3.80;99.90
11379;DHT22;5744;59.392;16.748;2023-02-25T22:00:51;-3.70;99.90
11379;DHT22;5744;59.392;16.748;2023-02-25T22:03:20;-3.70;99.90
11379;DHT22;5744;59.392;16.748;2023-02-25T22:05:48;-3.80;99.90
11379;DHT22;5744;59.392;16.748;2023-02-25T22:08:17;-3.70;99.90
11379;DHT22;5744;59.392;16.748;2023-02-25T22:10:45;-3.60;99.90
11379;DHT22;5744;59.392;16.748;2023-02-25T22:13:14;-3.50;99.90
11379;DHT22;5744;59.392;16.748;2023-02-25T22:15:45;-3.50;99.90
11379;DHT22;5744;59.392;16.748;2023-02-25T22:18:16;-3.40;99.90
11379;DHT22;5744;59.392;16.748;2023-02-25T22:20:45;-3.20;99.90
11379;DHT22;5744;59.392;16.748;2023-02-25T22:23:13;-3.10;99.90
11379;DHT22;5744;59.392;16.748;2023-02-25T22:25:42;-3.00;99.90
11379;DHT22;5744;59.392;16.748;2023-02-25T22:28:10;-2.80;99.90
11379;DHT22;5744;59.392;16.748;2023-02-25T22:30:39;-2.70;99.90
11379;DHT22;5744;59.392;16.748;2023-02-25T22:33:07;-2.60;99.90
11379;DHT22;5744;59.392;16.748;2023-02-25T22:35:39;-2.50;99.90
11379;DHT22;5744;59.392;16.748;2023-02-25T22:38:07;-2.40;99.90
11379;DHT22;5744;59.392;16.748;2023-02-25T22:40:36;-2.30;99.90
11379;DHT22;5744;59.392;16.748;2023-02-25T22:43:05;-2.30;99.90
11379;DHT22;5744;59.392;16.748;2023-02-25T22:45:34;-2.20;99.90
11379;DHT22;5744;59.392;16.748;2023-02-25T22:48:02;-2.20;99.90
11379;DHT22;5744;59.392;16.748;2023-02-25T22:50:31;-2.10;99.90
11379;DHT22;5744;59.392;16.748;2023-02-25T22:53:02;-2.20;99.90
11379;DHT22;5744;59.392;16.748;2023-02-25T22:55:31;-2.20;99.90
11379;DHT22;5744;59.392;16.748;2023-02-25T22:58:00;-2.20;99.90
11379;DHT22;5744;59.392;16.748;2023-02-25T23:00:35;-2.20;99.90
11379;DHT22;5744;59.392;16.748;2023-02-25T23:03:04;-2.20;99.90
11379;DHT22;5744;59.392;16.748;2023-02-25T23:05:33;-2.20;99.90
11379;DHT22;5744;59.392;16.748;2023-02-25T23:08:04;-2.10;99.90
11379;DHT22;5744;59.392;16.748;2023-02-25T23:10:33;-2.10;99.90
11379;DHT22;5744;59.392;16.748;2023-02-25T23:13:02;-2.20;99.90
11379;DHT22;5744;59.392;16.748;2023-02-25T23:15:33;-2.20;99.90
11379;DHT22;5744;59.392;16.748;2023-02-25T23:18:01;-2.20;99.90
11379;DHT22;5744;59.392;16.748;2023-02-25T23:20:32;-2.20;99.90
11379;DHT22;5744;59.392;16.748;2023-02-25T23:23:01;-2.30;99.90
11379;DHT22;5744;59.392;16.748;2023-02-25T23:25:32;-2.30;99.90
11379;DHT22;5744;59.392;16.748;2023-02-25T23:28:01;-2.30;99.90
11379;DHT22;5744;59.392;16.748;2023-02-25T23:30:30;-2.30;99.90
11379;DHT22;5744;59.392;16.748;2023-02-25T23:32:59;-2.30;99.90
11379;DHT22;5744;59.392;16.748;2023-02-25T23:35:27;-2.20;99.90
11379;DHT22;5744;59.392;16.748;2023-02-25T23:37:57;-2.20;99.90
11379;DHT22;5744;59.392;16.748;2023-02-25T23:40:25;-2.20;99.90
11379;DHT22;5744;59.392;16.748;2023-02-25T23:42:56;-2.20;99.90
11379;DHT22;5744;59.392;16.748;2023-02-25T23:45:25;-2.10;99.90
11379;DHT22;5744;59.392;16.748;2023-02-25T23:47:54;-2.00;99.90
11379;DHT22;5744;59.392;16.748;2023-02-25T23:50:22;-2.10;99.90
11379;DHT22;5744;59.392;16.748;2023-02-25T23:52:51;-2.10;99.90
11379;DHT22;5744;59.392;16.748;2023-02-25T23:55:20;-2.10;99.90
11379;DHT22;5744;59.392;16.748;2023-02-25T23:57:49;-2.10;99.90
